Time;durP1;ratioP1;P1;durP2;ratioP2;P2;SDS_P1;SDS_P2;PMS_P1;PMS_P2;Temp;Humidity;BMP_temperature;BMP_pressure;BME280_temperature;BME280_humidity;BME280_pressure;Samples;Min_cycle;Max_cycle;Signal;HPM_P1;HPM_P2
2021/09/16 00:01:36;;;;;;;5.50;1.50;;;15.80;1.00;;;;;;5003071;28;20740;-77
2021/09/16 00:04:03;;;;;;;3.60;1.63;;;15.90;1.00;;;;;;5003006;28;20214;-77
2021/09/16 00:06:28;;;;;;;5.50;1.67;;;15.90;1.00;;;;;;5007688;28;20573;-77
2021/09/16 00:08:54;;;;;;;5.10;1.47;;;15.90;1.00;;;;;;5005352;28;20456;-77
2021/09/16 00:11:19;;;;;;;8.13;1.63;;;15.90;1.00;;;;;;5006192;28;20235;-76
2021/09/16 00:13:45;;;;;;;4.50;1.50;;;15.90;1.00;;;;;;5006177;28;20188;-77
2021/09/16 00:16:11;;;;;;;3.90;1.53;;;15.90;1.00;;;;;;5005957;28;20183;-77
2021/09/16 00:18:37;;;;;;;6.53;1.70;;;15.90;1.00;;;;;;5008939;28;20184;-77
2021/09/16 00:21:02;;;;;;;2.30;1.57;;;15.90;1.00;;;;;;5010523;28;20191;-77
2021/09/16 00:23:28;;;;;;;4.60;1.03;;;15.80;1.00;;;;;;5004643;28;22030;-76
2021/09/16 00:25:54;;;;;;;5.50;1.97;;;15.70;1.00;;;;;;5008133;28;20287;-77
2021/09/16 00:28:19;;;;;;;2.77;0.93;;;15.70;1.00;;;;;;5014554;28;20212;-77
2021/09/16 00:30:45;;;;;;;6.03;1.27;;;15.70;1.00;;;;;;5007653;28;20207;-76
2021/09/16 00:33:11;;;;;;;9.33;1.77;;;15.70;1.00;;;;;;5008526;28;20188;-77
2021/09/16 00:35:36;;;;;;;3.10;1.00;;;15.70;1.00;;;;;;5009329;28;20586;-76
2021/09/16 00:38:02;;;;;;;3.63;1.40;;;15.70;1.00;;;;;;5010245;28;20199;-77
2021/09/16 00:40:28;;;;;;;5.00;1.60;;;15.70;1.00;;;;;;5007029;28;20275;-76
2021/09/16 00:42:53;;;;;;;4.60;1.10;;;15.70;1.00;;;;;;5013382;28;20645;-77
2021/09/16 00:45:19;;;;;;;4.23;2.50;;;15.60;1.00;;;;;;5008482;28;20214;-77
2021/09/16 00:47:47;;;;;;;3.90;1.00;;;15.60;1.00;;;;;;5010512;28;20288;-76
2021/09/16 00:50:14;;;;;;;2.80;1.00;;;15.60;1.00;;;;;;5006887;28;20301;-77
2021/09/16 00:52:41;;;;;;;8.30;1.40;;;15.60;1.00;;;;;;5008124;28;21168;-76
2021/09/16 00:55:09;;;;;;;7.30;1.47;;;15.70;1.00;;;;;;5006418;28;20485;-76
2021/09/16 00:57:36;;;;;;;4.83;2.13;;;15.70;1.00;;;;;;5011708;28;20466;-77
2021/09/16 01:00:07;;;;;;;3.17;1.20;;;15.60;1.00;;;;;;5006901;28;20458;-77
2021/09/16 01:02:33;;;;;;;2.40;1.23;;;15.60;1.00;;;;;;5008262;28;20458;-76
2021/09/16 01:04:59;;;;;;;3.00;1.03;;;15.60;1.00;;;;;;5007663;28;20500;-76
2021/09/16 01:07:24;;;;;;;5.57;1.20;;;15.60;1.00;;;;;;5008301;28;20560;-77
2021/09/16 01:09:50;;;;;;;3.10;1.00;;;15.60;1.00;;;;;;5004884;28;20631;-76
2021/09/16 01:12:16;;;;;;;3.63;1.30;;;15.60;1.00;;;;;;5009862;28;20193;-76
2021/09/16 01:14:41;;;;;;;4.13;1.17;;;15.50;1.00;;;;;;5006968;28;20191;-76
2021/09/16 01:17:07;;;;;;;5.37;1.60;;;15.60;1.00;;;;;;5010870;28;20184;-76
2021/09/16 01:19:33;;;;;;;3.97;1.03;;;15.60;1.00;;;;;;5004186;28;20231;-76
2021/09/16 01:21:59;;;;;;;10.03;1.30;;;15.60;1.00;;;;;;5005052;28;20198;-76
2021/09/16 01:24:25;;;;;;;3.97;1.40;;;15.60;1.00;;;;;;5006562;28;20192;-75
2021/09/16 01:26:51;;;;;;;2.53;1.40;;;15.60;1.00;;;;;;5010331;28;20450;-77
2021/09/16 01:29:16;;;;;;;3.73;1.63;;;15.60;1.00;;;;;;5011658;28;20445;-76
2021/09/16 01:31:48;;;;;;;5.30;2.37;;;15.50;1.00;;;;;;5006500;28;20219;-76
2021/09/16 01:34:15;;;;;;;4.07;3.10;;;15.50;1.00;;;;;;5007720;28;20179;-76
2021/09/16 01:36:43;;;;;;;8.23;3.20;;;15.50;1.00;;;;;;5005421;28;21537;-77
2021/09/16 01:39:11;;;;;;;2.80;2.30;;;15.60;1.00;;;;;;5006784;28;20459;-76
2021/09/16 01:41:37;;;;;;;3.10;2.00;;;15.70;1.00;;;;;;5006131;28;20454;-76
2021/09/16 01:44:03;;;;;;;4.60;2.53;;;15.70;1.00;;;;;;5010223;28;20538;-76
2021/09/16 01:46:29;;;;;;;7.53;2.37;;;15.60;1.00;;;;;;5005513;28;21687;-76
2021/09/16 01:48:58;;;;;;;3.60;2.10;;;15.40;1.00;;;;;;5003198;28;20450;-76
2021/09/16 01:51:24;;;;;;;3.67;2.33;;;15.40;1.00;;;;;;5004708;28;20196;-75
2021/09/16 01:53:49;;;;;;;7.00;3.37;;;15.30;1.00;;;;;;5001830;28;20465;-76
2021/09/16 01:56:15;;;;;;;3.13;2.23;;;15.30;1.00;;;;;;5009685;28;20850;-76
2021/09/16 01:58:41;;;;;;;4.73;2.60;;;15.20;1.00;;;;;;5011762;28;20208;-76
2021/09/16 02:01:06;;;;;;;5.30;2.90;;;15.30;1.00;;;;;;5014746;28;20195;-76
2021/09/16 02:03:32;;;;;;;3.50;1.80;;;15.40;1.00;;;;;;5011230;28;20755;-76
2021/09/16 02:05:58;;;;;;;3.37;2.07;;;15.30;1.00;;;;;;5011504;28;20184;-76
2021/09/16 02:08:24;;;;;;;9.50;2.33;;;15.40;1.00;;;;;;5011576;28;20696;-76
2021/09/16 02:10:50;;;;;;;6.80;2.80;;;15.40;1.00;;;;;;5003395;28;20509;-76
2021/09/16 02:13:15;;;;;;;4.20;2.50;;;15.40;1.00;;;;;;5008430;28;20450;-76
2021/09/16 02:15:41;;;;;;;4.77;3.10;;;15.40;1.00;;;;;;5010544;28;20504;-75
2021/09/16 02:18:07;;;;;;;3.70;2.20;;;15.40;1.00;;;;;;5006135;28;20192;-76
2021/09/16 02:20:33;;;;;;;4.27;2.13;;;15.30;1.00;;;;;;5004698;28;20231;-76
2021/09/16 02:22:58;;;;;;;4.90;2.67;;;15.30;1.00;;;;;;5004439;28;20342;-76
2021/09/16 02:25:24;;;;;;;4.93;2.30;;;15.30;1.00;;;;;;5001756;28;20983;-76
2021/09/16 02:27:50;;;;;;;2.80;1.50;;;15.20;1.00;;;;;;5004852;28;20197;-76
2021/09/16 02:30:16;;;;;;;4.80;2.03;;;15.10;1.00;;;;;;5013040;28;20202;-76
2021/09/16 02:32:41;;;;;;;4.87;2.07;;;15.10;1.00;;;;;;5013343;28;20219;-76
2021/09/16 02:35:08;;;;;;;6.07;2.30;;;15.20;1.00;;;;;;5003965;28;20188;-76
2021/09/16 02:37:33;;;;;;;4.50;2.20;;;15.20;1.00;;;;;;5001150;28;20265;-76
2021/09/16 02:39:59;;;;;;;5.20;2.30;;;15.20;1.00;;;;;;5006828;28;20842;-76
2021/09/16 02:42:24;;;;;;;7.27;2.00;;;15.10;1.00;;;;;;5004443;28;20192;-76
2021/09/16 02:44:50;;;;;;;3.50;1.40;;;15.20;1.00;;;;;;5006766;28;20195;-76
2021/09/16 02:47:16;;;;;;;3.07;1.50;;;15.10;1.00;;;;;;5008362;28;20198;-76
2021/09/16 02:49:41;;;;;;;3.57;1.10;;;15.10;1.00;;;;;;5007223;28;20223;-76
2021/09/16 02:52:07;;;;;;;3.90;1.70;;;15.00;1.00;;;;;;5005926;28;20180;-76
2021/09/16 02:54:33;;;;;;;5.60;1.80;;;15.10;1.00;;;;;;5005381;28;20254;-76
2021/09/16 02:56:58;;;;;;;2.10;1.30;;;15.00;1.00;;;;;;5003711;28;20176;-76
2021/09/16 02:59:24;;;;;;;6.07;1.60;;;15.10;1.00;;;;;;5006499;28;20198;-76
2021/09/16 03:01:50;;;;;;;3.63;1.30;;;15.00;1.00;;;;;;5006165;28;20218;-76
2021/09/16 03:04:15;;;;;;;8.47;2.80;;;14.90;1.00;;;;;;5006341;28;20200;-76
2021/09/16 03:06:41;;;;;;;2.33;1.33;;;15.00;1.00;;;;;;5005109;28;20246;-77
2021/09/16 03:09:06;;;;;;;7.50;1.60;;;14.90;1.00;;;;;;5008522;28;20204;-76
2021/09/16 03:11:32;;;;;;;4.40;1.33;;;14.80;1.00;;;;;;5003728;28;20218;-76
2021/09/16 03:13:58;;;;;;;4.13;1.60;;;14.70;1.00;;;;;;5009036;28;20193;-76
2021/09/16 03:16:23;;;;;;;3.97;1.03;;;14.60;1.00;;;;;;5000241;28;20196;-76
2021/09/16 03:18:49;;;;;;;4.13;1.27;;;14.60;1.00;;;;;;4993944;28;20184;-76
2021/09/16 03:21:15;;;;;;;5.13;0.90;;;14.70;1.00;;;;;;4993191;28;20927;-76
2021/09/16 03:23:40;;;;;;;3.00;1.10;;;14.60;1.00;;;;;;4994358;28;20230;-76
2021/09/16 03:26:06;;;;;;;4.17;1.40;;;14.70;1.00;;;;;;4996665;28;20413;-76
2021/09/16 03:28:32;;;;;;;6.37;1.27;;;14.60;1.00;;;;;;4996916;28;20204;-76
2021/09/16 03:30:58;;;;;;;3.83;1.50;;;14.60;1.00;;;;;;4998976;28;20220;-76
2021/09/16 03:33:23;;;;;;;4.73;1.70;;;14.50;1.00;;;;;;4996034;28;20579;-76
2021/09/16 03:35:49;;;;;;;4.17;1.70;;;14.60;1.00;;;;;;4993607;28;20187;-76
2021/09/16 03:38:15;;;;;;;1.13;0.80;;;14.60;1.00;;;;;;4996135;28;21681;-77
2021/09/16 03:40:41;;;;;;;3.43;1.47;;;14.60;1.00;;;;;;5000727;28;20199;-76
2021/09/16 03:43:06;;;;;;;2.50;1.00;;;14.50;1.00;;;;;;4999763;28;20188;-76
2021/09/16 03:45:32;;;;;;;5.80;1.47;;;14.40;1.00;;;;;;5001898;28;20486;-76
2021/09/16 03:47:58;;;;;;;2.73;1.30;;;14.50;1.00;;;;;;4997285;28;20641;-75
2021/09/16 03:50:24;;;;;;;2.93;1.50;;;14.50;1.00;;;;;;4998161;28;20517;-75
2021/09/16 03:52:49;;;;;;;6.80;1.90;;;14.50;1.00;;;;;;5000707;28;20275;-75
2021/09/16 03:55:16;;;;;;;4.50;1.87;;;14.30;1.00;;;;;;5001585;28;20183;-75
2021/09/16 03:57:42;;;;;;;3.53;1.63;;;14.30;1.00;;;;;;4995430;28;20199;-76
2021/09/16 04:00:08;;;;;;;5.97;2.03;;;14.30;1.00;;;;;;5004999;28;20825;-76
2021/09/16 04:02:35;;;;;;;7.40;2.60;;;14.20;1.00;;;;;;5004527;28;20625;-75
2021/09/16 04:05:00;;;;;;;6.83;1.83;;;14.20;1.00;;;;;;5000094;28;20550;-76
2021/09/16 04:07:26;;;;;;;3.37;1.77;;;14.20;1.00;;;;;;4996347;28;20473;-76
2021/09/16 04:09:52;;;;;;;6.10;2.20;;;14.20;1.00;;;;;;4997214;28;20216;-75
2021/09/16 04:12:18;;;;;;;5.83;2.27;;;14.20;1.00;;;;;;4998480;28;20445;-75
2021/09/16 04:14:43;;;;;;;6.43;2.80;;;14.10;1.00;;;;;;4996154;28;20732;-76
2021/09/16 04:17:09;;;;;;;8.20;2.57;;;14.10;1.00;;;;;;4999637;28;20176;-76
2021/09/16 04:19:34;;;;;;;9.07;2.30;;;14.10;1.00;;;;;;4997379;28;20176;-76
2021/09/16 04:22:00;;;;;;;7.23;2.63;;;14.10;1.90;;;;;;4994538;28;20309;-76
2021/09/16 04:24:26;;;;;;;5.77;2.50;;;13.90;2.80;;;;;;4995616;28;20200;-75
2021/09/16 04:26:51;;;;;;;12.77;2.63;;;14.00;9.00;;;;;;5000469;28;20172;-76
2021/09/16 04:29:18;;;;;;;7.97;3.03;;;14.00;26.90;;;;;;4995855;28;20179;-76
2021/09/16 04:31:44;;;;;;;6.67;3.00;;;13.90;23.10;;;;;;5003353;28;20234;-76
2021/09/16 04:34:10;;;;;;;10.40;3.17;;;13.90;17.70;;;;;;5001514;28;20438;-76
2021/09/16 04:36:36;;;;;;;8.37;3.60;;;13.90;52.60;;;;;;4999742;28;20192;-76
2021/09/16 04:39:03;;;;;;;7.10;2.77;;;14.00;59.60;;;;;;5000589;28;20200;-76
2021/09/16 04:41:30;;;;;;;10.93;3.47;;;14.00;37.90;;;;;;5001420;28;21020;-76
2021/09/16 04:43:56;;;;;;;6.80;3.17;;;14.00;58.90;;;;;;4999668;28;20458;-76
2021/09/16 04:46:22;;;;;;;11.83;5.03;;;14.00;74.40;;;;;;5000331;28;20513;-76
2021/09/16 04:48:47;;;;;;;9.63;3.40;;;14.20;94.10;;;;;;4999011;28;20216;-77
2021/09/16 04:51:13;;;;;;;12.50;3.90;;;14.10;59.10;;;;;;5000208;28;20249;-77
2021/09/16 04:53:39;;;;;;;9.83;3.97;;;14.10;75.80;;;;;;4993423;28;20260;-76
2021/09/16 04:56:04;;;;;;;8.97;3.60;;;14.00;47.20;;;;;;4997488;28;20196;-76
2021/09/16 04:58:30;;;;;;;9.10;3.67;;;14.00;58.30;;;;;;5002757;28;22082;-76
2021/09/16 05:00:56;;;;;;;8.50;3.90;;;14.00;91.20;;;;;;5002003;28;20188;-76
2021/09/16 05:03:21;;;;;;;11.73;4.83;;;14.00;69.50;;;;;;5002548;28;20598;-76
2021/09/16 05:05:47;;;;;;;7.20;4.37;;;13.90;32.20;;;;;;5011438;28;20216;-76
2021/09/16 05:08:14;;;;;;;11.67;5.37;;;13.90;60.80;;;;;;5003691;28;20697;-75
2021/09/16 05:10:40;;;;;;;10.43;4.83;;;13.90;51.90;;;;;;5005016;28;20211;-76
2021/09/16 05:13:05;;;;;;;10.40;4.60;;;13.80;94.70;;;;;;5003398;28;20447;-75
2021/09/16 05:15:31;;;;;;;12.00;6.20;;;13.80;99.90;;;;;;5005364;28;20833;-76
2021/09/16 05:17:57;;;;;;;8.30;5.60;;;13.80;99.90;;;;;;5005070;28;20184;-76
2021/09/16 05:20:22;;;;;;;9.57;5.50;;;13.90;99.90;;;;;;5004356;28;20199;-76
2021/09/16 05:22:48;;;;;;;13.13;5.27;;;13.80;99.90;;;;;;5006553;28;20200;-76
2021/09/16 05:25:13;;;;;;;10.33;5.50;;;13.90;99.90;;;;;;5006259;28;20243;-76
2021/09/16 05:27:39;;;;;;;11.40;5.80;;;13.80;99.90;;;;;;5005081;28;20605;-75
2021/09/16 05:30:05;;;;;;;11.50;6.40;;;13.80;97.50;;;;;;5004486;28;20212;-76
2021/09/16 05:32:31;;;;;;;13.40;6.10;;;13.70;99.90;;;;;;5005558;28;20706;-76
2021/09/16 05:34:57;;;;;;;10.50;4.90;;;13.80;99.90;;;;;;5006745;28;20887;-75
2021/09/16 05:37:23;;;;;;;12.20;5.90;;;13.80;99.90;;;;;;5009330;28;20446;-75
2021/09/16 05:39:49;;;;;;;16.40;5.20;;;13.80;99.90;;;;;;5007470;28;20180;-76
2021/09/16 05:42:15;;;;;;;5.53;4.20;;;13.80;99.90;;;;;;5002932;28;20496;-76
2021/09/16 05:44:40;;;;;;;9.67;4.70;;;13.80;99.90;;;;;;5005884;28;20473;-76
2021/09/16 05:47:06;;;;;;;8.27;4.70;;;13.80;99.90;;;;;;5004987;28;20191;-76
2021/09/16 05:49:32;;;;;;;8.07;4.40;;;13.80;99.90;;;;;;5008937;28;20242;-75
2021/09/16 05:51:57;;;;;;;10.93;5.20;;;13.90;99.90;;;;;;5006943;28;20307;-75
2021/09/16 05:54:23;;;;;;;6.50;4.70;;;13.90;99.90;;;;;;5006735;28;20211;-76
2021/09/16 05:56:49;;;;;;;7.90;5.10;;;13.90;99.90;;;;;;5005207;28;20763;-76
2021/09/16 05:59:15;;;;;;;7.97;4.40;;;13.90;99.90;;;;;;5002974;28;20192;-76
2021/09/16 06:01:40;;;;;;;11.23;5.00;;;13.90;99.90;;;;;;5010912;28;20206;-76
2021/09/16 06:04:06;;;;;;;10.93;5.57;;;13.90;99.90;;;;;;5005214;28;20450;-75
2021/09/16 06:06:31;;;;;;;6.90;4.40;;;13.90;99.90;;;;;;5005445;28;20184;-76
2021/09/16 06:08:57;;;;;;;9.00;4.83;;;14.00;99.90;;;;;;5002133;28;20728;-76
2021/09/16 06:11:23;;;;;;;11.93;4.57;;;14.10;99.90;;;;;;5004152;28;20236;-75
2021/09/16 06:13:48;;;;;;;7.43;4.53;;;14.10;99.90;;;;;;5004985;28;20191;-76
2021/09/16 06:16:14;;;;;;;11.20;4.93;;;14.10;99.90;;;;;;5005180;28;20273;-75
2021/09/16 06:18:40;;;;;;;10.90;4.80;;;14.00;99.90;;;;;;5004188;28;20185;-76
2021/09/16 06:21:05;;;;;;;9.80;5.33;;;14.10;99.90;;;;;;5011539;28;20207;-76
2021/09/16 06:23:31;;;;;;;6.43;4.70;;;14.20;99.90;;;;;;5019249;28;20208;-76
2021/09/16 06:25:57;;;;;;;7.47;4.60;;;14.20;99.90;;;;;;5011341;28;20185;-76
2021/09/16 06:28:22;;;;;;;13.07;5.37;;;14.30;99.90;;;;;;5005544;28;20203;-76
2021/09/16 06:30:48;;;;;;;8.60;5.60;;;14.20;89.00;;;;;;5003110;28;20216;-75
2021/09/16 06:33:14;;;;;;;9.63;4.70;;;14.30;99.90;;;;;;5000806;28;20215;-76
2021/09/16 06:35:41;;;;;;;9.33;5.27;;;14.20;87.20;;;;;;5000973;28;20242;-76
2021/09/16 06:38:07;;;;;;;9.80;5.37;;;14.40;99.90;;;;;;5004645;28;20200;-76
2021/09/16 06:40:33;;;;;;;6.13;4.97;;;14.40;92.00;;;;;;5006455;28;20458;-76
2021/09/16 06:42:58;;;;;;;7.50;4.80;;;14.50;99.90;;;;;;5003645;28;20542;-76
2021/09/16 06:45:24;;;;;;;9.30;4.70;;;14.50;99.90;;;;;;5002691;28;20454;-76
2021/09/16 06:47:50;;;;;;;10.20;5.30;;;14.30;86.00;;;;;;5002720;28;20698;-76
2021/09/16 06:50:16;;;;;;;13.73;5.50;;;14.40;99.90;;;;;;5002119;28;20742;-76
2021/09/16 06:52:42;;;;;;;9.40;4.70;;;14.40;73.80;;;;;;5002889;28;20196;-76
2021/09/16 06:55:08;;;;;;;8.60;5.17;;;14.40;87.90;;;;;;5003064;28;20835;-76
2021/09/16 06:57:33;;;;;;;7.00;5.07;;;14.30;32.80;;;;;;5004122;28;20454;-76
2021/09/16 06:59:59;;;;;;;13.57;5.50;;;14.30;94.20;;;;;;5003868;28;20478;-76
2021/09/16 07:02:25;;;;;;;10.80;5.40;;;14.40;82.20;;;;;;5005163;28;20224;-76
2021/09/16 07:04:51;;;;;;;13.10;5.47;;;14.40;70.90;;;;;;5001392;28;20283;-75
2021/09/16 07:07:17;;;;;;;11.37;5.60;;;14.40;99.30;;;;;;5005636;28;20445;-76
2021/09/16 07:09:43;;;;;;;11.23;6.80;;;14.30;43.60;;;;;;5004904;28;20458;-74
2021/09/16 07:12:09;;;;;;;9.47;6.80;;;14.40;99.90;;;;;;5003867;28;20451;-74
2021/09/16 07:14:35;;;;;;;14.33;8.40;;;14.30;93.10;;;;;;5002112;28;21017;-74
2021/09/16 07:17:00;;;;;;;11.03;7.23;;;14.20;99.90;;;;;;5005307;28;21378;-74
2021/09/16 07:19:26;;;;;;;11.40;7.40;;;14.20;99.90;;;;;;5001150;28;20654;-75
2021/09/16 07:21:53;;;;;;;13.50;8.90;;;14.10;99.90;;;;;;4999524;28;20247;-75
2021/09/16 07:24:19;;;;;;;10.30;7.40;;;14.10;99.90;;;;;;5000635;28;20481;-74
2021/09/16 07:26:50;;;;;;;12.23;8.70;;;14.00;1.00;;;;;;5003113;28;20458;-75
2021/09/16 07:29:23;;;;;;;11.93;9.47;;;14.00;1.00;;;;;;5016673;28;20843;-73
2021/09/16 07:31:52;;;;;;;13.30;8.70;;;13.90;99.90;;;;;;5006865;28;20482;-75
2021/09/16 07:34:19;;;;;;;11.47;8.27;;;14.10;78.40;;;;;;5002776;28;20534;-74
2021/09/16 07:36:45;;;;;;;11.83;8.53;;;14.20;99.90;;;;;;5001730;28;20450;-74
2021/09/16 07:39:12;;;;;;;9.03;7.33;;;14.10;99.90;;;;;;5000361;28;20471;-74
2021/09/16 07:41:38;;;;;;;10.10;7.50;;;14.10;99.90;;;;;;5003470;28;21028;-74
2021/09/16 07:44:04;;;;;;;8.57;7.40;;;14.20;99.90;;;;;;5002313;28;20565;-74
2021/09/16 07:46:30;;;;;;;12.30;6.67;;;14.10;1.00;;;;;;5006159;28;20451;-74
2021/09/16 07:48:57;;;;;;;9.33;6.50;;;14.00;1.00;;;;;;5005858;28;20219;-74
2021/09/16 07:51:23;;;;;;;8.90;6.97;;;14.00;1.00;;;;;;4998236;28;20466;-74
2021/09/16 07:53:49;;;;;;;11.73;6.43;;;14.10;99.90;;;;;;4999258;28;20469;-75
2021/09/16 07:56:15;;;;;;;14.63;7.40;;;14.00;99.90;;;;;;4997625;28;20450;-74
2021/09/16 07:58:43;;;;;;;10.53;6.43;;;14.00;99.90;;;;;;5004409;28;21090;-75
2021/09/16 08:01:09;;;;;;;10.40;6.70;;;13.90;99.90;;;;;;4999876;28;20194;-74
2021/09/16 08:03:35;;;;;;;12.30;7.57;;;14.00;99.90;;;;;;5006786;28;20482;-74
2021/09/16 08:06:00;;;;;;;7.40;6.00;;;14.10;99.90;;;;;;5003241;28;20967;-75
2021/09/16 08:08:26;;;;;;;10.60;7.17;;;14.10;99.90;;;;;;5002084;28;20473;-74
2021/09/16 08:10:52;;;;;;;11.67;7.27;;;14.10;99.90;;;;;;4999220;28;20203;-74
2021/09/16 08:13:17;;;;;;;11.73;8.23;;;14.10;54.30;;;;;;5001006;28;20221;-74
2021/09/16 08:15:43;;;;;;;14.77;8.37;;;14.20;99.90;;;;;;5001431;28;20195;-74
2021/09/16 08:18:09;;;;;;;15.13;7.50;;;14.30;73.60;;;;;;5001919;28;20184;-74
2021/09/16 08:20:44;;;;;;;14.63;8.50;;;14.30;1.00;;;;;;4999687;28;20657;-75
2021/09/16 08:23:09;;;;;;;9.10;8.13;;;14.30;1.00;;;;;;5002118;28;20188;-74
2021/09/16 08:25:35;;;;;;;16.40;11.27;;;14.30;70.40;;;;;;5001980;28;20453;-74
2021/09/16 08:28:01;;;;;;;10.93;8.73;;;14.20;75.40;;;;;;4997992;28;20219;-74
2021/09/16 08:30:27;;;;;;;12.60;9.10;;;14.20;99.90;;;;;;4998516;28;20358;-76
2021/09/16 08:32:53;;;;;;;12.83;9.40;;;14.30;1.00;;;;;;4999395;28;25353;-76
2021/09/16 08:35:19;;;;;;;11.60;9.40;;;14.40;99.90;;;;;;4998608;28;20180;-76
2021/09/16 08:37:46;;;;;;;17.80;10.17;;;14.50;1.00;;;;;;5002201;28;20520;-76
2021/09/16 08:40:12;;;;;;;16.77;9.97;;;14.60;21.90;;;;;;5003107;28;20589;-76
2021/09/16 08:42:41;;;;;;;12.57;10.37;;;14.60;99.90;;;;;;5002495;28;20500;-76
2021/09/16 08:45:11;;;;;;;17.83;10.60;;;14.60;1.00;;;;;;5004078;28;20812;-76
2021/09/16 08:47:38;;;;;;;13.27;10.13;;;14.70;1.00;;;;;;5001616;28;21266;-76
2021/09/16 08:50:04;;;;;;;13.33;9.80;;;14.80;1.00;;;;;;5005063;28;20475;-76
2021/09/16 08:52:37;;;;;;;17.20;10.73;;;14.80;1.00;;;;;;5002461;28;20458;-76
2021/09/16 08:55:04;;;;;;;14.40;10.53;;;14.80;1.00;;;;;;5002484;28;20473;-76
2021/09/16 08:57:36;;;;;;;13.40;9.50;;;14.80;1.00;;;;;;5002515;28;20442;-76
2021/09/16 09:00:05;;;;;;;14.83;10.27;;;14.90;99.90;;;;;;5006966;28;20450;-76
2021/09/16 09:02:31;;;;;;;15.00;9.60;;;14.90;99.90;;;;;;5004282;28;20480;-76
2021/09/16 09:04:56;;;;;;;17.43;10.87;;;15.00;99.90;;;;;;5004042;28;20450;-76
2021/09/16 09:07:22;;;;;;;14.30;10.77;;;15.00;99.90;;;;;;5003744;28;20442;-76
2021/09/16 09:09:47;;;;;;;11.73;10.50;;;15.00;99.90;;;;;;5003349;28;20277;-76
2021/09/16 09:12:15;;;;;;;13.00;10.07;;;15.10;99.90;;;;;;5004803;28;20306;-76
2021/09/16 09:14:44;;;;;;;13.37;9.97;;;15.10;99.90;;;;;;5002069;28;20192;-76
2021/09/16 09:17:19;;;;;;;14.37;9.43;;;15.10;99.90;;;;;;5003732;28;20447;-76
2021/09/16 09:19:46;;;;;;;10.50;9.40;;;15.10;99.90;;;;;;5003809;28;20449;-76
2021/09/16 09:22:12;;;;;;;14.50;10.80;;;15.10;99.90;;;;;;5004078;28;20450;-76
2021/09/16 09:24:41;;;;;;;16.53;10.00;;;15.10;99.90;;;;;;5002132;28;20906;-76
2021/09/16 09:27:49;;;;;;;16.27;11.10;;;15.20;99.90;;;;;;5000486;28;20211;-76
2021/09/16 09:30:23;;;;;;;13.67;9.37;;;15.20;99.90;;;;;;4962504;28;20479;-76
2021/09/16 09:32:58;;;;;;;19.60;9.43;;;15.40;99.90;;;;;;4996517;28;21107;-76
2021/09/16 09:35:42;;;;;;;17.53;9.57;;;15.60;99.90;;;;;;5004249;28;20446;-77
2021/09/16 09:38:17;;;;;;;16.73;9.17;;;15.60;92.90;;;;;;5003492;28;20471;-76
2021/09/16 09:40:46;;;;;;;17.43;10.83;;;15.70;56.30;;;;;;5002573;28;20459;-76
2021/09/16 09:43:36;;;;;;;16.43;10.57;;;15.70;28.00;;;;;;5000510;28;20458;-76
2021/09/16 09:46:13;;;;;;;11.27;10.10;;;15.80;46.70;;;;;;5003427;28;20561;-76
2021/09/16 09:48:40;;;;;;;14.83;11.40;;;15.80;35.50;;;;;;5002384;28;21006;-76
2021/09/16 09:51:07;;;;;;;13.40;9.93;;;15.80;20.20;;;;;;5010596;28;20547;-74
2021/09/16 09:53:41;;;;;;;10.77;9.67;;;15.70;14.10;;;;;;5003244;28;20636;-77
2021/09/16 09:56:18;;;;;;;15.80;10.63;;;15.80;17.90;;;;;;5003705;28;20460;-76
2021/09/16 09:58:44;;;;;;;14.30;8.33;;;15.70;12.30;;;;;;5005518;28;20520;-76
2021/09/16 10:01:28;;;;;;;14.97;10.60;;;15.80;22.40;;;;;;5002286;28;20474;-76
2021/09/16 10:03:55;;;;;;;12.73;10.23;;;15.90;3.70;;;;;;5003796;28;20939;-76
2021/09/16 10:06:20;;;;;;;10.60;9.50;;;16.00;9.10;;;;;;5000264;28;20451;-76
2021/09/16 10:09:09;;;;;;;9.80;8.80;;;16.10;13.70;;;;;;5001178;28;20509;-76
2021/09/16 10:11:36;;;;;;;15.47;10.80;;;16.20;18.40;;;;;;5006955;28;20226;-75
2021/09/16 10:14:02;;;;;;;11.47;8.97;;;16.30;1.00;;;;;;5001431;28;20553;-75
2021/09/16 10:16:30;;;;;;;10.93;9.70;;;16.30;1.90;;;;;;5001311;28;20438;-75
2021/09/16 10:18:56;;;;;;;11.53;8.70;;;16.30;1.00;;;;;;5004917;28;20184;-75
2021/09/16 10:21:22;;;;;;;10.63;9.53;;;16.20;1.00;;;;;;5003075;28;20452;-75
2021/09/16 10:23:51;;;;;;;9.77;8.77;;;16.20;1.00;;;;;;5003576;28;20209;-75
2021/09/16 10:26:33;;;;;;;9.70;8.70;;;16.10;1.00;;;;;;5001375;28;20451;-76
2021/09/16 10:28:59;;;;;;;7.97;6.93;;;16.20;1.00;;;;;;4999511;28;20461;-75
2021/09/16 10:31:25;;;;;;;12.67;7.57;;;16.20;1.00;;;;;;5007914;28;20490;-75
2021/09/16 10:33:52;;;;;;;8.60;7.07;;;16.30;1.00;;;;;;5004665;28;20449;-75
2021/09/16 10:36:17;;;;;;;9.03;7.27;;;16.40;1.00;;;;;;5005568;28;20451;-75
2021/09/16 10:38:44;;;;;;;8.23;6.27;;;16.50;1.00;;;;;;5000881;28;20470;-75
2021/09/16 10:41:13;;;;;;;11.67;6.87;;;16.80;1.00;;;;;;5003717;28;20576;-75
2021/09/16 10:43:40;;;;;;;6.87;5.20;;;17.20;1.00;;;;;;4997937;28;20541;-75
2021/09/16 10:46:25;;;;;;;8.00;5.27;;;17.50;1.00;;;;;;5001537;28;20462;-75
2021/09/16 10:48:52;;;;;;;5.70;4.60;;;17.70;1.00;;;;;;4996990;28;20462;-75
2021/09/16 10:51:41;;;;;;;8.67;4.50;;;17.80;1.00;;;;;;4999086;28;20767;-75
2021/09/16 10:54:33;;;;;;;5.90;3.47;;;18.10;1.00;;;;;;4996256;28;20461;-75
2021/09/16 10:57:17;;;;;;;5.30;3.50;;;18.20;1.00;;;;;;4995317;28;20509;-75
2021/09/16 10:59:49;;;;;;;4.10;3.10;;;18.30;1.00;;;;;;4997614;28;20457;-75
2021/09/16 11:02:16;;;;;;;3.60;2.67;;;18.40;1.00;;;;;;4993877;28;21061;-75
2021/09/16 11:04:57;;;;;;;6.53;3.10;;;18.50;1.00;;;;;;4996758;28;20450;-76
2021/09/16 11:07:32;;;;;;;6.27;3.43;;;18.90;1.00;;;;;;4999030;28;20450;-75
2021/09/16 11:10:16;;;;;;;5.37;3.23;;;18.70;1.00;;;;;;4996526;28;20895;-76
2021/09/16 11:12:47;;;;;;;9.13;3.27;;;18.20;1.00;;;;;;4995439;28;20447;-75
2021/09/16 11:15:18;;;;;;;4.93;2.90;;;18.10;1.00;;;;;;4998791;28;20774;-75
2021/09/16 11:17:45;;;;;;;6.37;3.37;;;18.10;1.00;;;;;;4998267;28;20892;-75
2021/09/16 11:20:13;;;;;;;4.57;2.73;;;18.10;1.00;;;;;;4996775;28;20451;-75
2021/09/16 11:22:39;;;;;;;3.97;3.10;;;18.20;1.00;;;;;;4992951;28;21226;-75
2021/09/16 11:25:06;;;;;;;4.60;4.20;;;18.40;1.00;;;;;;4990335;28;20482;-75
2021/09/16 11:27:36;;;;;;;5.07;4.57;;;18.20;1.00;;;;;;4984221;28;20458;-75
2021/09/16 11:30:04;;;;;;;4.90;4.40;;;18.10;1.00;;;;;;4992141;28;20535;-75
2021/09/16 11:32:37;;;;;;;4.67;3.70;;;18.00;1.00;;;;;;4996001;28;20454;-75
2021/09/16 11:35:06;;;;;;;6.73;4.30;;;17.90;1.00;;;;;;4996401;28;20474;-76
2021/09/16 11:37:39;;;;;;;5.10;4.00;;;18.10;1.00;;;;;;4994323;28;20471;-75
2021/09/16 11:40:08;;;;;;;5.20;4.33;;;18.30;1.00;;;;;;4995222;28;20537;-75
2021/09/16 11:42:36;;;;;;;7.53;4.10;;;18.20;1.00;;;;;;4997330;28;20466;-75
2021/09/16 11:45:08;;;;;;;7.63;4.23;;;18.10;1.00;;;;;;4994297;28;20447;-75
2021/09/16 11:47:43;;;;;;;5.90;5.10;;;17.80;1.00;;;;;;4996219;28;20636;-75
2021/09/16 11:50:21;;;;;;;6.63;5.57;;;17.80;1.00;;;;;;4992700;28;20480;-75
2021/09/16 11:52:47;;;;;;;6.93;5.20;;;17.60;1.00;;;;;;4992672;28;20450;-75
2021/09/16 11:55:15;;;;;;;5.70;4.73;;;17.50;1.00;;;;;;4998610;28;20462;-75
2021/09/16 11:57:59;;;;;;;6.80;4.67;;;17.50;1.00;;;;;;4995105;28;20454;-75
2021/09/16 12:00:29;;;;;;;5.43;4.10;;;17.40;1.00;;;;;;4999955;28;20587;-75
2021/09/16 12:02:55;;;;;;;3.80;3.50;;;17.30;1.00;;;;;;4998059;28;20469;-75
2021/09/16 12:05:54;;;;;;;4.50;3.40;;;17.30;1.00;;;;;;4996223;28;20451;-75
2021/09/16 12:08:27;;;;;;;5.90;3.80;;;17.20;1.00;;;;;;4989251;28;21037;-75
2021/09/16 12:10:55;;;;;;;7.60;3.57;;;17.20;1.00;;;;;;4995389;28;20513;-75
2021/09/16 12:13:27;;;;;;;4.67;3.87;;;17.20;1.00;;;;;;4995411;28;20454;-75
2021/09/16 12:16:03;;;;;;;5.00;3.40;;;17.30;1.00;;;;;;4998478;28;20536;-75
2021/09/16 12:18:28;;;;;;;5.53;4.07;;;17.40;1.00;;;;;;4999053;28;20462;-75
2021/09/16 12:20:54;;;;;;;4.60;3.90;;;17.50;1.00;;;;;;4998171;28;20520;-75
2021/09/16 12:23:22;;;;;;;3.97;3.67;;;17.40;1.00;;;;;;4997588;28;20279;-75
2021/09/16 12:26:00;;;;;;;6.03;3.30;;;17.40;1.00;;;;;;4996292;28;21463;-75
2021/09/16 12:28:28;;;;;;;3.80;3.20;;;17.40;1.00;;;;;;4994262;28;20470;-75
2021/09/16 12:30:55;;;;;;;5.40;2.87;;;17.40;1.00;;;;;;4998643;28;20496;-75
2021/09/16 12:33:34;;;;;;;5.60;3.30;;;17.50;1.00;;;;;;4995465;28;20814;-75
2021/09/16 12:36:13;;;;;;;4.30;2.20;;;17.50;1.00;;;;;;4992982;28;20470;-75
2021/09/16 12:38:48;;;;;;;9.07;2.67;;;17.50;1.00;;;;;;4992337;28;20480;-75
2021/09/16 12:41:21;;;;;;;6.20;2.83;;;17.40;1.00;;;;;;4992578;28;20885;-75
2021/09/16 12:43:46;;;;;;;3.83;2.70;;;17.40;1.00;;;;;;4992888;28;20619;-74
2021/09/16 12:46:18;;;;;;;6.23;2.67;;;17.40;1.00;;;;;;4992599;28;21321;-75
2021/09/16 12:48:43;;;;;;;3.57;2.17;;;17.40;1.00;;;;;;4992478;28;20232;-76
2021/09/16 12:51:11;;;;;;;2.80;1.90;;;17.50;1.00;;;;;;4990047;28;20496;-75